Onweer radar Meer informatie blitzortung!


waarschuwing voor winterse neerslag Meer informatie rain snow radar


Bezoek onze andere website:

Template documentation
and downloads

And another site



Sneeuw/IJzel/Bevriezing van: 13-12-2018 08:00 tot: 10:00 waarschuwing voor: Sneeuw/IJzel/Bevriezing niveau: Geel info button
Lokaal glad door bevriezing van natte weggedeelten.Kans op gladheid.Alle verkeersdeelnemers kunnen hinder ondervinden.Pas uw rijgedrag aan.Volg weerberichten en waarschuwingen.

METAR rapporten vliegvelden

   
EHRD - Rotterdam
Gewijzigd: 13-12-2018 09:25
Licht bewolkt  
Licht bewolkt  
   Wind: Oosten 16.7 km/h
Wind: Oosten 16.7 km/h
Temperatuur: 0°C
Voelt als: -4°C
Dauwpunt: -1°C
Vochtigheid: 93%
Barometer: 1022 hPa
Bewolking: Few Clouds
Zicht: 8 km
Bewolking: Licht bewolkt 700 ft
EHRD 130825Z AUTO 08009KT 8000 FEW007 00/M01 Q1022 BECMG 9999
EHAM - Amsterdam
Gewijzigd: 13-12-2018 09:25
Licht bewolkt  
Licht bewolkt  
   Wind: Oosten 18.5 km/h
Wind: Oosten 18.5 km/h
Temperatuur: 1°C
Voelt als: -4°C
Dauwpunt: 0°C
Vochtigheid: 93%
Barometer: 1022 hPa
Bewolking: Few Clouds
Zicht: meer dan 10 km
Bewolking: Licht bewolkt 900 ft
EHAM 130825Z 08010KT 9999 FEW009 01/M00 Q1022 NOSIG
EHEH - Eindhoven
Gewijzigd: 13-12-2018 09:25
Nevel, Helder  
Nevel, Helder  
   Wind: ONO 9.3 km/h
Wind: ONO 9.3 km/h
Temperatuur: 1°C
Voelt als: -2°C
Dauwpunt: -1°C
Vochtigheid: 87%
Barometer: 1021 hPa
Bewolking: Clear
Zicht: 8 km
Bewolking: Helder ft
EHEH 130825Z AUTO 06005KT 030V090 8000 BR NCD 01/M01 Q1021 BLU 07008KT 8000 NSC
EHBK - Maastricht
Gewijzigd: 13-12-2018 09:25
Helder  
Helder  
   Wind: ONO 16.7 km/h
Wind: ONO 16.7 km/h
Temperatuur: 0°C
Voelt als: -4°C
Dauwpunt: -1°C
Vochtigheid: 93%
Barometer: 1020 hPa
Bewolking: Clear
Zicht: meer dan 10 km
Bewolking: Helder ft
EHBK 130825Z AUTO 07009KT 040V120 9999 NCD M00/M01 Q1020 NOSIG
EDDL - Brussel
Gewijzigd: 13-12-2018 09:20
Helder  
Helder  
   Wind: NO 14.8 km/h
Wind: NO 14.8 km/h
Temperatuur: 0°C
Voelt als: -4°C
Dauwpunt: -2°C
Vochtigheid: 87%
Barometer: 1021 hPa
Zicht: meer dan 10 km
Bewolking: Helder ft
EDDL 130820Z 05008KT CAVOK 00/M02 Q1021 NOSIG
EBOS - Dusseldorf
Gewijzigd: 13-12-2018 09:20
Helder  
Helder  
   Wind: Oosten 18.5 km/h
Wind: Oosten 18.5 km/h
Temperatuur: 0°C
Voelt als: -5°C
Dauwpunt: -2°C
Vochtigheid: 87%
Barometer: 1019 hPa
Zicht: meer dan 10 km
Bewolking: Helder ft
EBOS 130820Z 09010KT CAVOK 00/M02 Q1019 NOSIG

Script ontwikkeld door  Saratoga-weather.org Aangepast voor de template door  Weerstation Leuven

U vindt ons ook hier:

Het Weer Aktueel

European Weather Network

Weather Underground

WeatherlinkIP

HAMweather, WeatherForYou, PWS Weather

Apparatuur in gebruik:

Weerstation
Davis VP2

Weerprogramma
Cumulus

Weercomputer
Zotac

Webleverancier
Quick Servers

Davis VP2

Cumulus

Zotac

Quick Servers